sensor_id;sensor_type;location;lat;lon;timestamp;pressure;altitude;pressure_sealevel;temperature;humidity
55044;BME280;54902;50.420;18.854;2023-04-22T00:00:27;101245.04;;;8.51;54.87
55044;BME280;54902;50.420;18.854;2023-04-22T00:00:58;101246.05;;;8.50;54.88
55044;BME280;54902;50.420;18.854;2023-04-22T00:01:31;101237.95;;;8.48;54.91
55044;BME280;54902;50.420;18.854;2023-04-22T00:02:03;101243.51;;;8.47;54.91
55044;BME280;54902;50.420;18.854;2023-04-22T00:02:34;101250.93;;;8.45;54.92
55044;BME280;54902;50.420;18.854;2023-04-22T00:03:06;101251.03;;;8.43;54.94
55044;BME280;54902;50.420;18.854;2023-04-22T00:03:37;101243.95;;;8.41;54.98
55044;BME280;54902;50.420;18.854;2023-04-22T00:04:13;101230.27;;;8.28;55.00
55044;BME280;54902;50.420;18.854;2023-04-22T00:04:44;101248.59;;;8.39;55.05
55044;BME280;54902;50.420;18.854;2023-04-22T00:05:19;101237.93;;;8.36;55.08
55044;BME280;54902;50.420;18.854;2023-04-22T00:05:50;101240.77;;;8.34;55.08
55044;BME280;54902;50.420;18.854;2023-04-22T00:06:27;101245.31;;;8.34;55.16
55044;BME280;54902;50.420;18.854;2023-04-22T00:06:59;101243.70;;;8.31;55.14
55044;BME280;54902;50.420;18.854;2023-04-22T00:07:30;101225.44;;;8.19;55.14
55044;BME280;54902;50.420;18.854;2023-04-22T00:08:02;101240.30;;;8.28;55.15
55044;BME280;54902;50.420;18.854;2023-04-22T00:08:33;101243.99;;;8.27;55.13
55044;BME280;54902;50.420;18.854;2023-04-22T00:09:04;101241.38;;;8.25;55.16
55044;BME280;54902;50.420;18.854;2023-04-22T00:09:35;101244.20;;;8.24;55.17
55044;BME280;54902;50.420;18.854;2023-04-22T00:10:07;101237.86;;;8.23;55.19
55044;BME280;54902;50.420;18.854;2023-04-22T00:10:38;101235.36;;;8.20;55.19
55044;BME280;54902;50.420;18.854;2023-04-22T00:11:09;101242.67;;;8.20;55.22
55044;BME280;54902;50.420;18.854;2023-04-22T00:11:40;101242.77;;;8.18;55.23
55044;BME280;54902;50.420;18.854;2023-04-22T00:12:11;101244.70;;;8.16;55.29
55044;BME280;54902;50.420;18.854;2023-04-22T00:12:42;101244.81;;;8.15;55.32
55044;BME280;54902;50.420;18.854;2023-04-22T00:13:13;101243.95;;;8.14;55.37
55044;BME280;54902;50.420;18.854;2023-04-22T00:13:44;101243.13;;;8.12;55.38
55044;BME280;54902;50.420;18.854;2023-04-22T00:14:15;101246.78;;;8.13;55.39
55044;BME280;54902;50.420;18.854;2023-04-22T00:14:46;101242.45;;;8.09;55.37
55044;BME280;54902;50.420;18.854;2023-04-22T00:15:17;101246.17;;;8.08;55.37
55044;BME280;54902;50.420;18.854;2023-04-22T00:15:51;101244.41;;;8.07;55.38
55044;BME280;54902;50.420;18.854;2023-04-22T00:16:22;101246.35;;;8.05;55.41
55044;BME280;54902;50.420;18.854;2023-04-22T00:16:56;101246.35;;;8.05;55.40
55044;BME280;54902;50.420;18.854;2023-04-22T00:17:27;101241.01;;;8.04;55.43
55044;BME280;54902;50.420;18.854;2023-04-22T00:17:58;101246.45;;;8.04;55.47
55044;BME280;54902;50.420;18.854;2023-04-22T00:18:29;101249.29;;;8.02;55.49
55044;BME280;54902;50.420;18.854;2023-04-22T00:19:00;101243.95;;;8.01;55.55
55044;BME280;54902;50.420;18.854;2023-04-22T00:19:32;101243.09;;;8.00;55.50
55044;BME280;54902;50.420;18.854;2023-04-22T00:20:03;101249.49;;;7.99;55.45
55044;BME280;54902;50.420;18.854;2023-04-22T00:20:35;101246.77;;;7.99;55.47
55044;BME280;54902;50.420;18.854;2023-04-22T00:21:06;101241.44;;;7.98;55.48
55044;BME280;54902;50.420;18.854;2023-04-22T00:21:37;101245.98;;;7.97;55.50
55044;BME280;54902;50.420;18.854;2023-04-22T00:22:08;101244.27;;;7.96;55.52
55044;BME280;54902;50.420;18.854;2023-04-22T00:22:40;101247.95;;;7.95;55.54
55044;BME280;54902;50.420;18.854;2023-04-22T00:23:12;101247.05;;;7.95;55.47
55044;BME280;54902;50.420;18.854;2023-04-22T00:23:43;101244.45;;;7.93;55.50
55044;BME280;54902;50.420;18.854;2023-04-22T00:24:14;101245.45;;;7.92;55.48
55044;BME280;54902;50.420;18.854;2023-04-22T00:24:45;101249.13;;;7.91;55.50
55044;BME280;54902;50.420;18.854;2023-04-22T00:25:16;101239.21;;;7.90;55.53
55044;BME280;54902;50.420;18.854;2023-04-22T00:25:47;101255.53;;;7.90;55.56
55044;BME280;54902;50.420;18.854;2023-04-22T00:26:18;101245.61;;;7.89;55.63
55044;BME280;54902;50.420;18.854;2023-04-22T00:26:50;101253.78;;;7.89;55.59
55044;BME280;54902;50.420;18.854;2023-04-22T00:27:21;101244.86;;;7.87;55.65
55044;BME280;54902;50.420;18.854;2023-04-22T00:27:52;101248.54;;;7.86;55.67
55044;BME280;54902;50.420;18.854;2023-04-22T00:28:23;101244.96;;;7.86;55.72
55044;BME280;54902;50.420;18.854;2023-04-22T00:28:54;101248.66;;;7.85;55.72
55044;BME280;54902;50.420;18.854;2023-04-22T00:29:25;101241.46;;;7.84;55.72
55044;BME280;54902;50.420;18.854;2023-04-22T00:29:56;101249.72;;;7.82;55.72
55044;BME280;54902;50.420;18.854;2023-04-22T00:30:27;101244.28;;;7.82;55.76
55044;BME280;54902;50.420;18.854;2023-04-22T00:30:58;101250.69;;;7.81;55.75
55044;BME280;54902;50.420;18.854;2023-04-22T00:31:29;101249.93;;;7.79;55.76
55044;BME280;54902;50.420;18.854;2023-04-22T00:32:00;101248.17;;;7.78;55.78
55044;BME280;54902;50.420;18.854;2023-04-22T00:32:31;101246.43;;;7.77;55.82
55044;BME280;54902;50.420;18.854;2023-04-22T00:33:02;101243.80;;;7.76;55.83
55044;BME280;54902;50.420;18.854;2023-04-22T00:33:33;101242.05;;;7.75;55.84
55044;BME280;54902;50.420;18.854;2023-04-22T00:34:04;101238.58;;;7.73;55.84
55044;BME280;54902;50.420;18.854;2023-04-22T00:34:35;101242.27;;;7.72;55.88
55044;BME280;54902;50.420;18.854;2023-04-22T00:35:06;101240.51;;;7.71;55.84
55044;BME280;54902;50.420;18.854;2023-04-22T00:35:37;101239.75;;;7.69;55.85
55044;BME280;54902;50.420;18.854;2023-04-22T00:36:08;101239.75;;;7.69;55.86
55044;BME280;54902;50.420;18.854;2023-04-22T00:36:39;101242.57;;;7.67;55.91
55044;BME280;54902;50.420;18.854;2023-04-22T00:37:10;101237.20;;;7.66;55.90
55044;BME280;54902;50.420;18.854;2023-04-22T00:37:41;101237.30;;;7.64;55.91
55044;BME280;54902;50.420;18.854;2023-04-22T00:38:12;101237.41;;;7.63;55.96
55044;BME280;54902;50.420;18.854;2023-04-22T00:38:47;101231.21;;;7.61;55.95
55044;BME280;54902;50.420;18.854;2023-04-22T00:39:20;101238.48;;;7.60;55.99
55044;BME280;54902;50.420;18.854;2023-04-22T00:39:51;101237.73;;;7.58;55.99
55044;BME280;54902;50.420;18.854;2023-04-22T00:40:22;101231.39;;;7.58;55.99
55044;BME280;54902;50.420;18.854;2023-04-22T00:40:53;101239.66;;;7.56;56.02
55044;BME280;54902;50.420;18.854;2023-04-22T00:41:24;101240.72;;;7.54;56.04
55044;BME280;54902;50.420;18.854;2023-04-22T00:41:55;101239.86;;;7.53;56.07
55044;BME280;54902;50.420;18.854;2023-04-22T00:42:27;101242.57;;;7.53;56.09
55044;BME280;54902;50.420;18.854;2023-04-22T00:42:58;101242.67;;;7.52;56.11
55044;BME280;54902;50.420;18.854;2023-04-22T00:43:29;101239.16;;;7.50;56.11
55044;BME280;54902;50.420;18.854;2023-04-22T00:44:00;101234.73;;;7.49;56.14
55044;BME280;54902;50.420;18.854;2023-04-22T00:44:32;101239.48;;;7.46;56.13
55044;BME280;54902;50.420;18.854;2023-04-22T00:45:04;101241.30;;;7.45;56.08
55044;BME280;54902;50.420;18.854;2023-04-22T00:45:39;101240.45;;;7.45;56.11
55044;BME280;54902;50.420;18.854;2023-04-22T00:46:14;101237.82;;;7.43;56.16
55044;BME280;54902;50.420;18.854;2023-04-22T00:46:45;101230.73;;;7.41;56.17
55044;BME280;54902;50.420;18.854;2023-04-22T00:47:17;101238.89;;;7.41;56.18
55044;BME280;54902;50.420;18.854;2023-04-22T00:47:48;101239.86;;;7.40;56.20
55044;BME280;54902;50.420;18.854;2023-04-22T00:48:19;101238.13;;;7.39;56.25
55044;BME280;54902;50.420;18.854;2023-04-22T00:48:51;101239.09;;;7.38;56.26
55044;BME280;54902;50.420;18.854;2023-04-22T00:49:25;101242.78;;;7.37;56.23
55044;BME280;54902;50.420;18.854;2023-04-22T00:49:58;101237.44;;;7.35;56.25
55044;BME280;54902;50.420;18.854;2023-04-22T00:50:30;101241.12;;;7.34;56.28
55044;BME280;54902;50.420;18.854;2023-04-22T00:51:01;101239.36;;;7.33;56.31
55044;BME280;54902;50.420;18.854;2023-04-22T00:51:32;101239.47;;;7.32;56.35
55044;BME280;54902;50.420;18.854;2023-04-22T00:52:03;101235.00;;;7.31;56.36
55044;BME280;54902;50.420;18.854;2023-04-22T00:52:34;101234.24;;;7.29;56.38
55044;BME280;54902;50.420;18.854;2023-04-22T00:53:05;101240.64;;;7.28;56.38
55044;BME280;54902;50.420;18.854;2023-04-22T00:53:36;101243.34;;;7.28;56.41
55044;BME280;54902;50.420;18.854;2023-04-22T00:54:07;101234.45;;;7.26;56.46
55044;BME280;54902;50.420;18.854;2023-04-22T00:54:38;101241.70;;;7.25;56.47
55044;BME280;54902;50.420;18.854;2023-04-22T00:55:09;101235.40;;;7.25;56.50
55044;BME280;54902;50.420;18.854;2023-04-22T00:55:40;101242.76;;;7.23;56.53
55044;BME280;54902;50.420;18.854;2023-04-22T00:56:12;101242.76;;;7.23;56.54
55044;BME280;54902;50.420;18.854;2023-04-22T00:56:43;101241.04;;;7.22;56.56
55044;BME280;54902;50.420;18.854;2023-04-22T00:57:16;101247.43;;;7.21;56.55
55044;BME280;54902;50.420;18.854;2023-04-22T00:57:49;101252.86;;;7.21;56.59
55044;BME280;54902;50.420;18.854;2023-04-22T00:58:25;101243.93;;;7.19;56.62
55044;BME280;54902;50.420;18.854;2023-04-22T00:58:57;101246.74;;;7.17;56.62
55044;BME280;54902;50.420;18.854;2023-04-22T00:59:29;101241.41;;;7.16;56.64
55044;BME280;54902;50.420;18.854;2023-04-22T01:00:00;101244.99;;;7.16;56.62
55044;BME280;54902;50.420;18.854;2023-04-22T01:00:32;101235.28;;;7.12;56.50
55044;BME280;54902;50.420;18.854;2023-04-22T01:01:03;101246.08;;;7.14;56.64
55044;BME280;54902;50.420;18.854;2023-04-22T01:01:35;101243.37;;;7.14;56.66
55044;BME280;54902;50.420;18.854;2023-04-22T01:02:05;101246.95;;;7.14;56.70
55044;BME280;54902;50.420;18.854;2023-04-22T01:02:37;101248.80;;;7.14;56.72
55044;BME280;54902;50.420;18.854;2023-04-22T01:03:09;101245.19;;;7.13;56.71
55044;BME280;54902;50.420;18.854;2023-04-22T01:03:40;101240.81;;;7.11;56.76
55044;BME280;54902;50.420;18.854;2023-04-22T01:04:12;101243.53;;;7.11;56.78
55044;BME280;54902;50.420;18.854;2023-04-22T01:04:45;101237.23;;;7.10;56.82
55044;BME280;54902;50.420;18.854;2023-04-22T01:05:17;101244.49;;;7.10;56.83
55044;BME280;54902;50.420;18.854;2023-04-22T01:05:48;101239.05;;;7.10;56.84
55044;BME280;54902;50.420;18.854;2023-04-22T01:06:19;101247.21;;;7.10;56.84
55044;BME280;54902;50.420;18.854;2023-04-22T01:06:51;101250.92;;;7.09;56.83
55044;BME280;54902;50.420;18.854;2023-04-22T01:07:25;101246.45;;;7.08;56.91
55044;BME280;54902;50.420;18.854;2023-04-22T01:07:56;101245.59;;;7.07;56.90
55044;BME280;54902;50.420;18.854;2023-04-22T01:08:28;101242.95;;;7.06;56.88
55044;BME280;54902;50.420;18.854;2023-04-22T01:09:01;101248.37;;;7.06;56.90
55044;BME280;54902;50.420;18.854;2023-04-22T01:09:32;101233.16;;;7.03;56.92
55044;BME280;54902;50.420;18.854;2023-04-22T01:10:03;101247.61;;;7.04;56.91
55044;BME280;54902;50.420;18.854;2023-04-22T01:10:35;101242.28;;;7.02;56.92
55044;BME280;54902;50.420;18.854;2023-04-22T01:11:06;101246.81;;;7.02;56.95
55044;BME280;54902;50.420;18.854;2023-04-22T01:11:37;101240.52;;;7.01;56.93
55044;BME280;54902;50.420;18.854;2023-04-22T01:12:08;101247.81;;;7.01;56.97
55044;BME280;54902;50.420;18.854;2023-04-22T01:12:39;101244.30;;;6.99;56.99
55044;BME280;54902;50.420;18.854;2023-04-22T01:13:10;101238.86;;;6.99;56.97
55044;BME280;54902;50.420;18.854;2023-04-22T01:13:41;101247.98;;;6.98;56.98
55044;BME280;54902;50.420;18.854;2023-04-22T01:14:12;101240.81;;;6.97;56.98
55044;BME280;54902;50.420;18.854;2023-04-22T01:14:43;101243.54;;;6.97;57.00
55044;BME280;54902;50.420;18.854;2023-04-22T01:15:15;101244.60;;;6.94;56.98
55044;BME280;54902;50.420;18.854;2023-04-22T01:15:46;101246.31;;;6.95;57.00
55044;BME280;54902;50.420;18.854;2023-04-22T01:16:17;101250.13;;;6.93;57.02
55044;BME280;54902;50.420;18.854;2023-04-22T01:16:50;101250.20;;;6.92;56.99
55044;BME280;54902;50.420;18.854;2023-04-22T01:17:23;101242.04;;;6.92;57.01
55044;BME280;54902;50.420;18.854;2023-04-22T01:17:55;101238.46;;;6.91;57.01
55044;BME280;54902;50.420;18.854;2023-04-22T01:18:26;101247.57;;;6.90;57.00
55044;BME280;54902;50.420;18.854;2023-04-22T01:18:57;101252.15;;;6.90;57.00
55044;BME280;54902;50.420;18.854;2023-04-22T01:19:28;101251.28;;;6.89;57.03
55044;BME280;54902;50.420;18.854;2023-04-22T01:20:01;101247.78;;;6.87;57.01
55044;BME280;54902;50.420;18.854;2023-04-22T01:20:34;101248.64;;;6.88;57.03
55044;BME280;54902;50.420;18.854;2023-04-22T01:21:06;101246.02;;;6.86;57.07
55044;BME280;54902;50.420;18.854;2023-04-22T01:21:38;101240.59;;;6.86;57.07
55044;BME280;54902;50.420;18.854;2023-04-22T01:22:11;101244.27;;;6.85;57.07
55044;BME280;54902;50.420;18.854;2023-04-22T01:22:44;101245.26;;;6.84;57.09
55044;BME280;54902;50.420;18.854;2023-04-22T01:23:19;101245.26;;;6.84;57.09
55044;BME280;54902;50.420;18.854;2023-04-22T01:23:51;101252.51;;;6.84;57.12
55044;BME280;54902;50.420;18.854;2023-04-22T01:24:22;101248.14;;;6.81;57.13
55044;BME280;54902;50.420;18.854;2023-04-22T01:24:54;101244.46;;;6.82;57.13
55044;BME280;54902;50.420;18.854;2023-04-22T01:25:25;101249.99;;;6.81;57.15
55044;BME280;54902;50.420;18.854;2023-04-22T01:25:56;101245.52;;;6.80;57.15
55044;BME280;54902;50.420;18.854;2023-04-22T01:26:28;101247.37;;;6.79;57.13
55044;BME280;54902;50.420;18.854;2023-04-22T01:26:59;101240.19;;;6.78;57.16
55044;BME280;54902;50.420;18.854;2023-04-22T01:27:32;101250.19;;;6.78;57.16
55044;BME280;54902;50.420;18.854;2023-04-22T01:28:03;101245.72;;;6.77;57.19
55044;BME280;54902;50.420;18.854;2023-04-22T01:28:34;101239.43;;;6.76;57.20
55044;BME280;54902;50.420;18.854;2023-04-22T01:29:05;101243.09;;;6.75;57.23
55044;BME280;54902;50.420;18.854;2023-04-22T01:29:37;101240.48;;;6.74;57.25
55044;BME280;54902;50.420;18.854;2023-04-22T01:30:09;101242.30;;;6.73;57.26
55044;BME280;54902;50.420;18.854;2023-04-22T01:30:42;101242.40;;;6.72;57.28
55044;BME280;54902;50.420;18.854;2023-04-22T01:31:13;101246.08;;;6.71;57.30
55044;BME280;54902;50.420;18.854;2023-04-22T01:31:45;101241.64;;;6.70;57.27
55044;BME280;54902;50.420;18.854;2023-04-22T01:32:17;101243.45;;;6.69;57.30
55044;BME280;54902;50.420;18.854;2023-04-22T01:32:49;101241.73;;;6.68;57.20
55044;BME280;54902;50.420;18.854;2023-04-22T01:33:20;101246.27;;;6.68;57.35
55044;BME280;54902;50.420;18.854;2023-04-22T01:33:51;101248.12;;;6.67;57.37
55044;BME280;54902;50.420;18.854;2023-04-22T01:34:22;101244.60;;;6.65;57.35
55044;BME280;54902;50.420;18.854;2023-04-22T01:34:53;101241.89;;;6.65;57.37
55044;BME280;54902;50.420;18.854;2023-04-22T01:35:24;101245.61;;;6.64;57.38
55044;BME280;54902;50.420;18.854;2023-04-22T01:35:55;101242.09;;;6.62;57.40
55044;BME280;54902;50.420;18.854;2023-04-22T01:36:26;101243.95;;;6.62;57.40
55044;BME280;54902;50.420;18.854;2023-04-22T01:36:57;101242.28;;;6.59;57.41
55044;BME280;54902;50.420;18.854;2023-04-22T01:37:28;101240.42;;;6.60;57.43
55044;BME280;54902;50.420;18.854;2023-04-22T01:38:00;101243.24;;;6.58;57.42
55044;BME280;54902;50.420;18.854;2023-04-22T01:38:31;101221.21;;;6.49;57.40
55044;BME280;54902;50.420;18.854;2023-04-22T01:39:03;101242.45;;;6.56;57.44
55044;BME280;54902;50.420;18.854;2023-04-22T01:39:34;101238.01;;;6.55;57.46
55044;BME280;54902;50.420;18.854;2023-04-22T01:40:08;101240.72;;;6.55;57.48
55044;BME280;54902;50.420;18.854;2023-04-22T01:40:39;101238.97;;;6.54;57.49
55044;BME280;54902;50.420;18.854;2023-04-22T01:41:12;101242.64;;;6.53;57.50
55044;BME280;54902;50.420;18.854;2023-04-22T01:41:43;101241.78;;;6.53;57.52
55044;BME280;54902;50.420;18.854;2023-04-22T01:42:14;101239.16;;;6.51;57.45
55044;BME280;54902;50.420;18.854;2023-04-22T01:42:45;101240.02;;;6.52;57.54
55044;BME280;54902;50.420;18.854;2023-04-22T01:43:17;101242.83;;;6.50;57.55
55044;BME280;54902;50.420;18.854;2023-04-22T01:43:48;101241.98;;;6.50;57.58
55044;BME280;54902;50.420;18.854;2023-04-22T01:44:19;101247.46;;;6.48;57.60
55044;BME280;54902;50.420;18.854;2023-04-22T01:44:50;101245.65;;;6.49;57.59
55044;BME280;54902;50.420;18.854;2023-04-22T01:45:21;101239.41;;;6.47;57.59
55044;BME280;54902;50.420;18.854;2023-04-22T01:45:52;101246.70;;;6.46;57.59
55044;BME280;54902;50.420;18.854;2023-04-22T01:46:23;101239.51;;;6.45;57.61
55044;BME280;54902;50.420;18.854;2023-04-22T01:46:54;101248.61;;;6.44;57.63
55044;BME280;54902;50.420;18.854;2023-04-22T01:47:25;101243.18;;;6.44;57.62
55044;BME280;54902;50.420;18.854;2023-04-22T01:47:57;101245.99;;;6.43;57.63
55044;BME280;54902;50.420;18.854;2023-04-22T01:48:28;101242.42;;;6.42;57.64
55044;BME280;54902;50.420;18.854;2023-04-22T01:48:58;101227.64;;;6.33;57.66
55044;BME280;54902;50.420;18.854;2023-04-22T01:49:29;101243.48;;;6.40;57.68
55044;BME280;54902;50.420;18.854;2023-04-22T01:50:00;101250.75;;;6.39;57.71
55044;BME280;54902;50.420;18.854;2023-04-22T01:50:31;101238.14;;;6.38;57.73
55044;BME280;54902;50.420;18.854;2023-04-22T01:51:02;101245.33;;;6.39;57.75
55044;BME280;54902;50.420;18.854;2023-04-22T01:51:34;101248.11;;;6.38;57.74
55044;BME280;54902;50.420;18.854;2023-04-22T01:52:04;101240.95;;;6.37;57.76
55044;BME280;54902;50.420;18.854;2023-04-22T01:52:35;101238.33;;;6.36;57.77
55044;BME280;54902;50.420;18.854;2023-04-22T01:53:06;101247.43;;;6.35;57.79
55044;BME280;54902;50.420;18.854;2023-04-22T01:53:38;101244.72;;;6.35;57.81
55044;BME280;54902;50.420;18.854;2023-04-22T01:54:09;101253.81;;;6.34;57.82
55044;BME280;54902;50.420;18.854;2023-04-22T01:54:40;101243.91;;;6.33;57.80
55044;BME280;54902;50.420;18.854;2023-04-22T01:55:11;101249.34;;;6.33;57.82
55044;BME280;54902;50.420;18.854;2023-04-22T01:55:42;101244.97;;;6.30;57.83
55044;BME280;54902;50.420;18.854;2023-04-22T01:56:14;101247.69;;;6.30;57.87
55044;BME280;54902;50.420;18.854;2023-04-22T01:56:51;101249.54;;;6.30;57.89
55044;BME280;54902;50.420;18.854;2023-04-22T01:57:22;101246.91;;;6.28;57.85
55044;BME280;54902;50.420;18.854;2023-04-22T01:57:53;101243.32;;;6.28;57.85
55044;BME280;54902;50.420;18.854;2023-04-22T01:58:28;101247.87;;;6.27;57.88
55044;BME280;54902;50.420;18.854;2023-04-22T01:58:59;101242.45;;;6.27;57.87
55044;BME280;54902;50.420;18.854;2023-04-22T01:59:30;101249.72;;;6.27;57.83
55044;BME280;54902;50.420;18.854;2023-04-22T02:00:01;101243.40;;;6.26;57.88
55044;BME280;54902;50.420;18.854;2023-04-22T02:00:32;101243.50;;;6.25;57.88
55044;BME280;54902;50.420;18.854;2023-04-22T02:01:03;101240.78;;;6.25;57.88
55044;BME280;54902;50.420;18.854;2023-04-22T02:01:34;101238.07;;;6.25;57.88
55044;BME280;54902;50.420;18.854;2023-04-22T02:02:05;101240.88;;;6.23;57.92
55044;BME280;54902;50.420;18.854;2023-04-22T02:02:36;101240.88;;;6.23;57.94
55044;BME280;54902;50.420;18.854;2023-04-22T02:03:07;101239.03;;;6.24;57.95
55044;BME280;54902;50.420;18.854;2023-04-22T02:03:38;101243.68;;;6.22;57.95
55044;BME280;54902;50.420;18.854;2023-04-22T02:04:09;101245.45;;;6.23;57.93
55044;BME280;54902;50.420;18.854;2023-04-22T02:04:40;101235.74;;;6.19;57.75
55044;BME280;54902;50.420;18.854;2023-04-22T02:05:11;101235.55;;;6.22;57.95
55044;BME280;54902;50.420;18.854;2023-04-22T02:05:42;101242.73;;;6.23;57.98
55044;BME280;54902;50.420;18.854;2023-04-22T02:06:13;101247.36;;;6.21;57.97
55044;BME280;54902;50.420;18.854;2023-04-22T02:06:44;101250.07;;;6.21;58.04
55044;BME280;54902;50.420;18.854;2023-04-22T02:07:15;101240.08;;;6.21;58.04
55044;BME280;54902;50.420;18.854;2023-04-22T02:07:46;101239.22;;;6.21;58.04
55044;BME280;54902;50.420;18.854;2023-04-22T02:08:17;101237.46;;;6.20;58.04
55044;BME280;54902;50.420;18.854;2023-04-22T02:08:48;101241.17;;;6.19;58.04
55044;BME280;54902;50.420;18.854;2023-04-22T02:09:19;101238.36;;;6.20;58.01
55044;BME280;54902;50.420;18.854;2023-04-22T02:09:50;101242.02;;;6.19;57.95
55044;BME280;54902;50.420;18.854;2023-04-22T02:10:21;101237.55;;;6.18;57.93
55044;BME280;54902;50.420;18.854;2023-04-22T02:10:52;101239.41;;;6.18;57.91
55044;BME280;54902;50.420;18.854;2023-04-22T02:11:23;101240.36;;;6.17;57.97
55044;BME280;54902;50.420;18.854;2023-04-22T02:11:53;101243.07;;;6.17;57.99
55044;BME280;54902;50.420;18.854;2023-04-22T02:12:24;101240.36;;;6.17;58.06
55044;BME280;54902;50.420;18.854;2023-04-22T02:12:55;101240.36;;;6.17;58.07
55044;BME280;54902;50.420;18.854;2023-04-22T02:13:38;101239.51;;;6.16;58.10
55044;BME280;54902;50.420;18.854;2023-04-22T02:14:09;101237.75;;;6.15;58.12
55044;BME280;54902;50.420;18.854;2023-04-22T02:14:39;101235.90;;;6.16;58.14
55044;BME280;54902;50.420;18.854;2023-04-22T02:15:10;101242.31;;;6.15;58.13
55044;BME280;54902;50.420;18.854;2023-04-22T02:15:41;101232.42;;;6.14;58.15
55044;BME280;54902;50.420;18.854;2023-04-22T02:16:12;101244.13;;;6.14;58.15
55044;BME280;54902;50.420;18.854;2023-04-22T02:16:43;101243.27;;;6.14;58.18
55044;BME280;54902;50.420;18.854;2023-04-22T02:17:14;101245.08;;;6.13;58.22
55044;BME280;54902;50.420;18.854;2023-04-22T02:17:48;101237.04;;;6.12;58.23
55044;BME280;54902;50.420;18.854;2023-04-22T02:18:20;101242.46;;;6.12;58.23
55044;BME280;54902;50.420;18.854;2023-04-22T02:18:51;101243.45;;;6.11;58.22
55044;BME280;54902;50.420;18.854;2023-04-22T02:19:22;101241.70;;;6.10;58.24
55044;BME280;54902;50.420;18.854;2023-04-22T02:19:53;101234.52;;;6.09;58.26
55044;BME280;54902;50.420;18.854;2023-04-22T02:20:24;101243.52;;;6.09;58.24
55044;BME280;54902;50.420;18.854;2023-04-22T02:20:55;101241.80;;;6.08;58.23
55044;BME280;54902;50.420;18.854;2023-04-22T02:21:30;101238.19;;;6.08;58.22
55044;BME280;54902;50.420;18.854;2023-04-22T02:22:04;101238.28;;;6.06;58.21
55044;BME280;54902;50.420;18.854;2023-04-22T02:22:35;101247.28;;;6.07;58.23
55044;BME280;54902;50.420;18.854;2023-04-22T02:23:06;101242.04;;;6.04;58.25
55044;BME280;54902;50.420;18.854;2023-04-22T02:23:38;101242.04;;;6.04;58.26
55044;BME280;54902;50.420;18.854;2023-04-22T02:24:09;101236.63;;;6.04;58.26
55044;BME280;54902;50.420;18.854;2023-04-22T02:24:40;101242.99;;;6.03;58.27
55044;BME280;54902;50.420;18.854;2023-04-22T02:25:12;101237.57;;;6.03;58.34
55044;BME280;54902;50.420;18.854;2023-04-22T02:25:49;101245.70;;;6.03;58.35
55044;BME280;54902;50.420;18.854;2023-04-22T02:26:21;101243.98;;;6.02;58.38
55044;BME280;54902;50.420;18.854;2023-04-22T02:26:55;101238.55;;;6.02;58.40
55044;BME280;54902;50.420;18.854;2023-04-22T02:27:26;101236.80;;;6.01;58.39
55044;BME280;54902;50.420;18.854;2023-04-22T02:27:56;101234.86;;;6.03;58.40
55044;BME280;54902;50.420;18.854;2023-04-22T02:28:28;101236.63;;;6.04;58.45
55044;BME280;54902;50.420;18.854;2023-04-22T02:28:59;101242.04;;;6.04;58.46
55044;BME280;54902;50.420;18.854;2023-04-22T02:29:30;101236.63;;;6.04;58.49
55044;BME280;54902;50.420;18.854;2023-04-22T02:30:02;101246.51;;;6.05;58.51
55044;BME280;54902;50.420;18.854;2023-04-22T02:30:33;101237.42;;;6.06;58.55
55044;BME280;54902;50.420;18.854;2023-04-22T02:31:04;101241.84;;;6.07;58.58
55044;BME280;54902;50.420;18.854;2023-04-22T02:31:35;101240.99;;;6.06;58.63
55044;BME280;54902;50.420;18.854;2023-04-22T02:32:06;101236.42;;;6.07;58.64
55044;BME280;54902;50.420;18.854;2023-04-22T02:32:37;101238.19;;;6.08;58.64
55044;BME280;54902;50.420;18.854;2023-04-22T02:33:09;101235.48;;;6.08;58.63
55044;BME280;54902;50.420;18.854;2023-04-22T02:33:40;101231.01;;;6.07;58.57
55044;BME280;54902;50.420;18.854;2023-04-22T02:34:11;101234.52;;;6.09;58.51
55044;BME280;54902;50.420;18.854;2023-04-22T02:34:42;101236.27;;;6.10;58.50
55044;BME280;54902;50.420;18.854;2023-04-22T02:35:13;101238.09;;;6.09;58.52
55044;BME280;54902;50.420;18.854;2023-04-22T02:35:44;101241.70;;;6.10;58.48
55044;BME280;54902;50.420;18.854;2023-04-22T02:36:15;101238.99;;;6.10;58.45
55044;BME280;54902;50.420;18.854;2023-04-22T02:36:46;101233.57;;;6.10;58.38
55044;BME280;54902;50.420;18.854;2023-04-22T02:37:17;101241.70;;;6.10;58.37
55044;BME280;54902;50.420;18.854;2023-04-22T02:37:48;101237.13;;;6.10;58.42
55044;BME280;54902;50.420;18.854;2023-04-22T02:38:19;101238.03;;;6.11;58.48
55044;BME280;54902;50.420;18.854;2023-04-22T02:38:50;101243.45;;;6.11;58.46
55044;BME280;54902;50.420;18.854;2023-04-22T02:39:21;101240.75;;;6.11;58.46
55044;BME280;54902;50.420;18.854;2023-04-22T02:39:52;101244.41;;;6.10;58.50
55044;BME280;54902;50.420;18.854;2023-04-22T02:40:23;101235.32;;;6.11;58.48
55044;BME280;54902;50.420;18.854;2023-04-22T02:40:55;101238.03;;;6.11;58.49
55044;BME280;54902;50.420;18.854;2023-04-22T02:41:25;101235.32;;;6.11;58.49
55044;BME280;54902;50.420;18.854;2023-04-22T02:41:57;101241.70;;;6.10;58.50
55044;BME280;54902;50.420;18.854;2023-04-22T02:42:28;101246.17;;;6.11;58.49
55044;BME280;54902;50.420;18.854;2023-04-22T02:42:59;101241.70;;;6.10;58.50
55044;BME280;54902;50.420;18.854;2023-04-22T02:43:29;101247.12;;;6.10;58.50
55044;BME280;54902;50.420;18.854;2023-04-22T02:44:00;101239.08;;;6.08;58.48
55044;BME280;54902;50.420;18.854;2023-04-22T02:44:31;101242.65;;;6.09;58.49
55044;BME280;54902;50.420;18.854;2023-04-22T02:45:03;101238.19;;;6.08;58.50